Time;durP1;ratioP1;P1;durP2;ratioP2;P2;SDS_P1;SDS_P2;PMS_P1;PMS_P2;Temp;Humidity;BMP_temperature;BMP_pressure;BME280_temperature;BME280_humidity;BME280_pressure;Samples;Min_cycle;Max_cycle;Signal;HPM_P1;HPM_P2
2022/11/26 00:00:26;;;;;;;19.33;5.43;;;;;;;8.57;72.71;100076.47;5159703;28;20689;-92
2022/11/26 00:03:16;;;;;;;13.25;5.30;;;;;;;8.52;72.77;100086.50;5125647;28;20528;-92
2022/11/26 00:06:29;;;;;;;10.48;4.53;;;;;;;8.40;72.59;100083.72;5138732;28;20108;-91
2022/11/26 00:09:23;;;;;;;10.05;4.18;;;;;;;8.17;72.58;100044.75;5125723;28;20436;-91
2022/11/26 00:12:20;;;;;;;20.95;5.40;;;;;;;8.29;72.33;100075.66;5151190;28;20086;-91
2022/11/26 00:15:20;;;;;;;15.73;4.47;;;;;;;8.35;72.01;100090.25;5174649;28;20519;-92
2022/11/26 00:18:11;;;;;;;16.13;4.15;;;;;;;8.08;72.78;100082.34;5164903;28;20050;-91
2022/11/26 00:21:03;;;;;;;14.05;4.47;;;;;;;7.83;73.19;100047.00;5164316;28;20110;-92
2022/11/26 00:23:54;;;;;;;14.07;4.15;;;;;;;8.16;72.76;100095.91;5138056;28;20055;-90
2022/11/26 00:26:44;;;;;;;11.82;4.22;;;;;;;7.97;72.70;100061.94;5150851;28;20093;-92
2022/11/26 00:29:34;;;;;;;10.45;3.67;;;;;;;7.97;72.52;100070.69;5147874;28;20050;-91
2022/11/26 00:32:25;;;;;;;12.95;4.47;;;;;;;8.13;72.61;100106.69;5148109;28;20235;-91
2022/11/26 00:35:15;;;;;;;15.68;3.88;;;;;;;7.90;72.93;100098.47;5131383;28;20102;-91
2022/11/26 00:38:14;;;;;;;13.63;3.97;;;;;;;8.13;73.25;100122.53;5162764;28;20153;-91
2022/11/26 00:41:09;;;;;;;14.52;3.35;;;;;;;8.00;72.88;100089.00;5137516;28;20126;-90
2022/11/26 00:43:59;;;;;;;12.60;3.80;;;;;;;8.17;73.04;100108.16;5143219;28;20065;-91
2022/11/26 00:46:50;;;;;;;13.50;4.00;;;;;;;8.06;73.58;100093.03;5136820;28;20537;-91
2022/11/26 00:49:40;;;;;;;14.00;4.07;;;;;;;8.03;73.06;100095.03;5163313;28;20043;-91
2022/11/26 00:52:33;;;;;;;13.48;4.40;;;;;;;8.10;73.37;100117.44;5149956;28;20109;-91
2022/11/26 00:55:38;;;;;;;16.30;3.90;;;;;;;8.20;72.80;100134.38;5147025;28;20061;-91
2022/11/26 00:58:29;;;;;;;13.48;4.97;;;;;;;8.00;73.33;100114.56;5167361;28;20516;-92
2022/11/26 01:01:22;;;;;;;17.08;4.85;;;;;;;8.21;73.30;100149.28;5139982;28;20047;-91
2022/11/26 01:04:12;;;;;;;12.98;4.95;;;;;;;8.26;72.87;100155.13;5137494;28;20046;-92
2022/11/26 01:07:03;;;;;;;23.80;6.93;;;;;;;8.16;73.31;100139.03;5163467;28;20086;-92
2022/11/26 01:09:53;;;;;;;17.48;5.45;;;;;;;8.20;73.67;100143.16;5163757;28;20101;-91
2022/11/26 01:12:43;;;;;;;17.10;5.05;;;;;;;8.17;73.52;100139.88;5143423;28;20116;-91
2022/11/26 01:15:33;;;;;;;21.13;5.75;;;;;;;8.12;73.10;100120.84;5121302;28;20185;-91
2022/11/26 01:18:24;;;;;;;16.17;5.95;;;;;;;8.24;73.30;100151.72;5149545;28;20057;-91
2022/11/26 01:21:15;;;;;;;16.08;5.07;;;;;;;8.47;72.97;100176.69;5149195;28;20562;-92
2022/11/26 01:24:05;;;;;;;15.13;6.75;;;;;;;8.09;73.38;100137.75;5164440;28;20452;-91
2022/11/26 01:26:56;;;;;;;27.25;11.27;;;;;;;8.32;74.17;100182.97;5152317;28;20140;-91
2022/11/26 01:29:46;;;;;;;24.67;10.02;;;;;;;8.37;73.57;100184.31;5121699;28;20049;-91
2022/11/26 01:32:36;;;;;;;31.42;11.02;;;;;;;8.15;73.23;100169.03;5176926;28;20498;-92
2022/11/26 01:35:27;;;;;;;22.77;9.68;;;;;;;8.21;73.22;100175.72;5174036;28;20046;-91
2022/11/26 01:38:17;;;;;;;20.38;8.25;;;;;;;8.24;73.47;100170.22;5135817;28;20046;-92
2022/11/26 01:41:40;;;;;;;18.67;8.85;;;;;;;8.37;73.38;100200.19;5140437;28;20049;-91
2022/11/26 01:44:33;;;;;;;20.90;9.05;;;;;;;8.30;73.71;100201.53;5144451;28;20440;-91
2022/11/26 01:47:29;;;;;;;26.70;9.23;;;;;;;8.35;73.73;100206.53;5161358;28;20061;-91
2022/11/26 01:50:31;;;;;;;28.92;10.40;;;;;;;8.43;73.13;100206.91;5162437;28;20046;-91
2022/11/26 01:53:48;;;;;;;24.08;9.25;;;;;;;8.43;72.88;100207.75;5162539;28;20061;-91
2022/11/26 01:56:48;;;;;;;24.83;9.13;;;;;;;8.16;73.69;100188.38;5164278;28;20065;-91
2022/11/26 01:59:41;;;;;;;26.17;8.25;;;;;;;8.36;73.46;100203.78;5148736;28;20043;-91
2022/11/26 02:02:32;;;;;;;19.33;8.60;;;;;;;8.31;73.11;100190.03;5162406;28;20058;-91
2022/11/26 02:05:30;;;;;;;23.42;8.52;;;;;;;8.39;73.38;100203.63;5135478;28;20054;-91
2022/11/26 02:08:20;;;;;;;21.27;7.93;;;;;;;8.29;72.74;100180.50;5147682;28;20057;-91
2022/11/26 02:11:16;;;;;;;19.55;7.68;;;;;;;8.24;72.80;100197.53;5148637;28;20535;-92
2022/11/26 02:14:11;;;;;;;26.15;7.50;;;;;;;7.98;72.99;100161.38;5160983;28;20046;-91
2022/11/26 02:17:10;;;;;;;21.15;7.78;;;;;;;8.17;73.48;100212.03;5149074;28;20065;-91
2022/11/26 02:20:00;;;;;;;22.67;7.53;;;;;;;8.23;73.34;100224.88;5162347;28;20144;-92
2022/11/26 02:23:07;;;;;;;25.02;7.35;;;;;;;8.10;73.06;100215.19;5148762;28;20050;-91
2022/11/26 02:26:17;;;;;;;24.02;7.20;;;;;;;8.15;72.40;100224.53;5136693;28;20054;-91
2022/11/26 02:29:16;;;;;;;19.63;6.75;;;;;;;8.11;73.13;100220.38;5162475;28;20115;-91
2022/11/26 02:32:18;;;;;;;21.80;6.53;;;;;;;8.07;72.59;100232.06;5156089;28;20429;-91
2022/11/26 02:35:17;;;;;;;18.95;6.07;;;;;;;8.07;72.83;100244.44;5159569;28;20066;-92
2022/11/26 02:38:33;;;;;;;24.63;6.80;;;;;;;7.97;73.43;100228.31;5149641;28;20185;-92
2022/11/26 02:41:23;;;;;;;18.48;6.53;;;;;;;7.72;72.60;100198.19;5160274;28;20184;-91
2022/11/26 02:44:16;;;;;;;18.02;6.40;;;;;;;7.93;72.79;100229.47;5162560;28;20085;-92
2022/11/26 02:47:11;;;;;;;13.60;4.63;;;;;;;8.04;73.65;100248.13;5148448;28;20046;-91
2022/11/26 02:50:09;;;;;;;15.15;6.30;;;;;;;8.05;73.22;100263.03;5161888;28;20053;-91
2022/11/26 02:53:01;;;;;;;17.83;6.10;;;;;;;7.91;73.10;100258.63;5134953;28;20065;-91
2022/11/26 02:56:01;;;;;;;17.52;5.70;;;;;;;8.03;73.44;100275.50;5148798;28;20061;-92
2022/11/26 02:58:53;;;;;;;19.65;6.28;;;;;;;7.94;73.17;100268.97;5142388;28;20500;-92
2022/11/26 03:02:04;;;;;;;18.45;6.40;;;;;;;8.03;73.38;100285.22;5175902;28;20451;-90
2022/11/26 03:04:58;;;;;;;24.63;6.50;;;;;;;7.97;72.97;100284.63;5161975;28;20571;-90
2022/11/26 03:07:51;;;;;;;24.75;5.95;;;;;;;7.97;73.01;100282.00;5160127;28;20069;-89
2022/11/26 03:10:41;;;;;;;17.25;6.68;;;;;;;7.87;73.27;100261.53;5161455;28;20180;-90
2022/11/26 03:13:31;;;;;;;19.02;6.72;;;;;;;7.96;73.81;100264.47;5147629;28;20428;-89
2022/11/26 03:16:22;;;;;;;13.93;6.05;;;;;;;7.86;72.98;100258.06;5189829;28;20041;-88
2022/11/26 03:19:12;;;;;;;21.55;7.95;;;;;;;7.87;73.57;100251.81;5188000;28;20041;-88
2022/11/26 03:22:02;;;;;;;27.67;9.27;;;;;;;8.10;73.24;100286.50;5162641;28;20026;-90
2022/11/26 03:24:53;;;;;;;26.90;9.23;;;;;;;8.29;72.65;100297.63;5154440;28;20054;-88
2022/11/26 03:27:43;;;;;;;14.82;7.40;;;;;;;7.91;73.20;100245.44;5191679;28;20057;-87
2022/11/26 03:30:34;;;;;;;23.85;7.95;;;;;;;7.97;72.92;100263.50;5154442;28;20034;-88
2022/11/26 03:33:24;;;;;;;16.42;7.40;;;;;;;7.48;72.63;100197.94;5192606;28;20030;-88
2022/11/26 03:36:14;;;;;;;23.92;7.13;;;;;;;8.13;73.64;100297.75;5172652;28;20043;-89
2022/11/26 03:39:05;;;;;;;22.45;6.28;;;;;;;7.94;73.11;100274.25;5152755;28;20425;-90
2022/11/26 03:41:55;;;;;;;23.55;6.20;;;;;;;7.86;73.67;100265.13;5137467;28;20104;-89
2022/11/26 03:44:45;;;;;;;15.55;5.15;;;;;;;8.11;73.44;100312.84;5166334;28;20169;-90
2022/11/26 03:47:35;;;;;;;22.05;5.70;;;;;;;7.99;73.47;100301.25;5164076;28;20065;-89
2022/11/26 03:50:25;;;;;;;17.95;5.50;;;;;;;7.80;73.23;100265.50;5163039;28;20055;-90
2022/11/26 03:53:15;;;;;;;15.43;5.32;;;;;;;7.91;73.65;100295.59;5151230;28;20057;-89
2022/11/26 03:56:06;;;;;;;19.42;5.35;;;;;;;8.04;73.48;100300.09;5151800;28;20046;-89
2022/11/26 03:58:57;;;;;;;20.55;5.60;;;;;;;8.10;73.47;100319.06;5155906;28;20126;-89
2022/11/26 04:01:47;;;;;;;21.58;5.40;;;;;;;7.98;72.82;100320.69;5163091;28;20046;-89
2022/11/26 04:04:37;;;;;;;18.20;5.00;;;;;;;7.62;73.02;100280.69;5138480;28;20101;-90
2022/11/26 04:07:28;;;;;;;19.85;4.97;;;;;;;7.44;73.01;100270.28;5150743;28;20204;-90
2022/11/26 04:10:18;;;;;;;10.80;4.93;;;;;;;7.43;73.32;100281.81;5178704;28;20180;-90
2022/11/26 04:13:08;;;;;;;18.30;4.75;;;;;;;7.51;72.52;100310.34;5178735;28;20180;-89
2022/11/26 04:15:58;;;;;;;18.38;4.75;;;;;;;7.56;73.12;100320.66;5164920;28;20333;-90
2022/11/26 04:18:48;;;;;;;17.42;4.85;;;;;;;7.24;72.80;100260.94;5150796;28;20077;-89
2022/11/26 04:21:38;;;;;;;16.48;5.13;;;;;;;7.55;73.04;100322.44;5136562;28;20047;-89
2022/11/26 04:24:28;;;;;;;19.50;4.35;;;;;;;7.45;72.94;100305.44;5165408;28;20050;-90
2022/11/26 04:27:19;;;;;;;17.90;4.55;;;;;;;7.38;73.10;100307.59;5180560;28;20050;-89
2022/11/26 04:30:09;;;;;;;18.05;5.15;;;;;;;7.45;73.14;100316.00;5143621;28;20049;-89
2022/11/26 04:32:59;;;;;;;17.75;5.28;;;;;;;7.18;73.78;100263.94;5167102;28;20492;-89
2022/11/26 04:35:49;;;;;;;19.67;5.35;;;;;;;7.44;73.23;100311.69;5165624;28;20086;-90
2022/11/26 04:38:39;;;;;;;18.02;5.25;;;;;;;7.14;73.46;100275.63;5166740;28;20447;-90
2022/11/26 04:41:30;;;;;;;23.27;5.50;;;;;;;7.12;73.62;100268.72;5165898;28;20054;-89
2022/11/26 04:44:20;;;;;;;25.42;5.70;;;;;;;7.41;73.91;100336.44;5165557;28;20122;-88
2022/11/26 04:47:10;;;;;;;16.33;5.18;;;;;;;7.33;72.83;100337.84;5181554;28;20046;-90
2022/11/26 04:50:00;;;;;;;23.17;5.05;;;;;;;7.01;73.01;100301.00;5177408;28;20052;-90
2022/11/26 04:52:51;;;;;;;23.98;5.07;;;;;;;7.09;72.89;100340.16;5165065;28;20054;-90
2022/11/26 04:55:41;;;;;;;13.30;4.50;;;;;;;6.86;73.43;100296.66;5122412;28;20090;-90
2022/11/26 04:58:32;;;;;;;20.58;4.88;;;;;;;6.85;72.31;100290.50;5141069;28;20057;-90
2022/11/26 05:01:22;;;;;;;14.75;5.63;;;;;;;6.91;72.71;100340.25;5136706;28;20061;-90
2022/11/26 05:04:12;;;;;;;19.88;5.72;;;;;;;6.84;72.55;100330.97;5149722;28;20539;-89
2022/11/26 05:07:03;;;;;;;19.85;4.80;;;;;;;6.79;72.68;100331.25;5134169;28;20073;-90
2022/11/26 05:09:53;;;;;;;21.38;4.72;;;;;;;6.76;72.82;100335.84;5148561;28;20084;-89
2022/11/26 05:12:43;;;;;;;15.65;4.75;;;;;;;6.46;72.33;100312.91;5170442;28;20065;-89
2022/11/26 05:15:33;;;;;;;23.45;4.95;;;;;;;6.76;71.39;100354.31;5136925;28;20554;-89
2022/11/26 05:18:24;;;;;;;12.52;5.05;;;;;;;6.72;72.94;100368.56;5149284;28;20062;-88
2022/11/26 05:21:14;;;;;;;16.80;5.68;;;;;;;7.06;72.32;100365.75;5149663;28;20077;-89
2022/11/26 05:24:04;;;;;;;19.98;5.97;;;;;;;6.65;72.51;100319.78;5149423;28;20050;-90
2022/11/26 05:26:55;;;;;;;16.67;5.05;;;;;;;6.39;72.73;100329.13;5163279;28;20082;-90
2022/11/26 05:29:46;;;;;;;22.08;5.82;;;;;;;6.20;73.09;100311.72;5149045;28;20101;-90
2022/11/26 05:32:37;;;;;;;19.17;5.95;;;;;;;6.18;73.01;100328.53;5162627;28;20085;-89
2022/11/26 05:35:27;;;;;;;23.27;5.90;;;;;;;6.18;72.61;100339.91;5163059;28;20081;-89
2022/11/26 05:38:17;;;;;;;17.77;5.78;;;;;;;6.20;72.61;100377.56;5162969;28;20061;-89
2022/11/26 05:41:08;;;;;;;21.38;5.93;;;;;;;6.21;73.08;100387.16;5148014;28;20429;-89
2022/11/26 05:43:58;;;;;;;15.50;5.80;;;;;;;5.91;72.41;100355.38;5172124;28;20463;-89
2022/11/26 05:46:48;;;;;;;24.42;6.93;;;;;;;5.87;72.73;100367.00;5173769;28;20435;-90
2022/11/26 05:49:38;;;;;;;19.38;6.47;;;;;;;5.78;73.02;100322.72;5176592;28;20456;-89
2022/11/26 05:52:28;;;;;;;21.95;5.75;;;;;;;5.84;73.18;100354.84;5176208;28;20424;-89
2022/11/26 05:55:18;;;;;;;19.90;5.78;;;;;;;5.75;72.73;100360.59;5170990;28;20042;-89
2022/11/26 05:58:09;;;;;;;15.65;5.60;;;;;;;5.73;72.65;100393.16;5148900;28;20070;-89
2022/11/26 06:00:59;;;;;;;13.75;5.45;;;;;;;5.71;72.26;100390.63;5136333;28;20097;-90
2022/11/26 06:03:49;;;;;;;14.32;5.85;;;;;;;5.52;72.37;100385.44;5135776;28;20065;-89
2022/11/26 06:06:39;;;;;;;20.15;6.80;;;;;;;5.49;72.59;100404.00;5162194;28;20116;-89
2022/11/26 06:09:29;;;;;;;21.00;6.20;;;;;;;5.19;71.78;100380.09;5172117;28;20500;-90
2022/11/26 06:12:19;;;;;;;22.73;5.72;;;;;;;5.25;73.15;100384.19;5161482;28;20046;-89
2022/11/26 06:15:10;;;;;;;14.13;5.47;;;;;;;5.18;72.96;100391.53;5162007;28;20049;-89
2022/11/26 06:18:00;;;;;;;13.15;5.57;;;;;;;4.86;72.54;100349.25;5161867;28;20503;-90
2022/11/26 06:20:50;;;;;;;17.23;5.70;;;;;;;5.19;72.14;100423.00;5133253;28;20417;-89
2022/11/26 06:23:40;;;;;;;20.85;6.15;;;;;;;5.16;72.66;100399.50;5148555;28;20435;-88
2022/11/26 06:26:41;;;;;;;12.52;5.78;;;;;;;4.82;72.92;100350.34;5149572;28;20053;-90
2022/11/26 06:29:31;;;;;;;19.48;6.15;;;;;;;5.12;72.93;100403.19;5161741;28;20061;-89
2022/11/26 06:32:22;;;;;;;15.77;6.15;;;;;;;5.05;73.13;100409.69;5147227;28;20057;-89
2022/11/26 06:35:12;;;;;;;18.85;6.00;;;;;;;5.11;72.98;100422.53;5161690;28;20125;-89
2022/11/26 06:38:02;;;;;;;18.33;6.55;;;;;;;5.21;73.65;100427.38;5141963;28;20145;-89
2022/11/26 06:41:00;;;;;;;21.65;6.53;;;;;;;4.90;74.03;100394.66;5162144;28;20112;-89
2022/11/26 06:43:50;;;;;;;20.73;7.32;;;;;;;5.07;73.78;100421.00;5134703;28;20061;-89
2022/11/26 06:46:40;;;;;;;18.30;8.07;;;;;;;5.27;73.92;100437.59;5161413;28;20057;-89
2022/11/26 06:49:30;;;;;;;17.27;8.80;;;;;;;5.06;74.77;100407.91;5151927;28;20038;-87
2022/11/26 06:52:20;;;;;;;20.98;9.48;;;;;;;4.83;74.64;100385.34;5185810;28;20029;-88
2022/11/26 06:55:10;;;;;;;22.05;10.80;;;;;;;5.22;74.48;100436.94;5181532;28;20049;-88
2022/11/26 06:58:01;;;;;;;28.60;11.00;;;;;;;5.21;74.13;100432.63;5182456;28;20069;-88
2022/11/26 07:00:51;;;;;;;23.92;10.38;;;;;;;5.50;74.30;100453.09;5172342;28;20069;-88
2022/11/26 07:03:41;;;;;;;20.58;10.05;;;;;;;5.35;74.00;100431.00;5188197;28;20058;-88
2022/11/26 07:06:32;;;;;;;25.65;11.18;;;;;;;5.40;74.12;100457.94;5174415;28;20034;-87
2022/11/26 07:09:22;;;;;;;32.22;14.77;;;;;;;5.48;73.86;100449.66;5180260;28;20050;-90
2022/11/26 07:12:12;;;;;;;37.15;16.73;;;;;;;5.47;74.32;100447.97;5149470;28;20550;-89
2022/11/26 07:15:03;;;;;;;40.28;18.42;;;;;;;5.63;73.83;100466.50;5121643;28;20058;-90
2022/11/26 07:17:53;;;;;;;34.65;15.75;;;;;;;5.65;74.54;100464.63;5147938;28;20054;-89
2022/11/26 07:20:43;;;;;;;38.67;17.98;;;;;;;5.69;74.21;100473.22;5161123;28;20054;-89
2022/11/26 07:23:34;;;;;;;28.20;13.32;;;;;;;5.82;73.86;100484.81;5162141;28;20072;-90
2022/11/26 07:26:24;;;;;;;35.63;16.27;;;;;;;5.65;74.12;100476.00;5175260;28;20066;-89
2022/11/26 07:29:14;;;;;;;42.47;16.92;;;;;;;5.79;73.80;100477.94;5161671;28;20065;-89
2022/11/26 07:32:04;;;;;;;34.42;16.92;;;;;;;5.81;73.99;100478.72;5147419;28;20076;-88
2022/11/26 07:34:54;;;;;;;34.92;15.95;;;;;;;6.00;73.80;100506.78;5165555;28;20141;-89
2022/11/26 07:37:44;;;;;;;32.03;15.25;;;;;;;5.90;74.23;100487.94;5160519;28;20066;-90
2022/11/26 07:40:34;;;;;;;32.47;13.95;;;;;;;5.95;73.94;100496.47;5133920;28;20073;-89
2022/11/26 07:43:24;;;;;;;31.17;14.52;;;;;;;5.99;73.79;100476.94;5134268;28;20061;-89
2022/11/26 07:46:17;;;;;;;32.75;15.32;;;;;;;6.37;73.29;100531.25;5174758;28;20504;-89
2022/11/26 07:49:08;;;;;;;31.48;15.15;;;;;;;6.11;74.09;100500.03;5147003;28;20488;-89
2022/11/26 07:51:58;;;;;;;38.92;14.75;;;;;;;6.41;73.69;100532.78;5160348;28;20050;-90
2022/11/26 07:54:48;;;;;;;31.75;14.02;;;;;;;6.58;73.96;100541.50;5174470;28;20077;-88
2022/11/26 07:57:38;;;;;;;26.65;13.45;;;;;;;6.35;74.24;100502.31;5146453;28;20062;-89
2022/11/26 08:00:28;;;;;;;30.00;14.30;;;;;;;6.68;73.88;100536.59;5160630;28;20424;-89
2022/11/26 08:03:18;;;;;;;27.67;14.15;;;;;;;6.70;74.20;100534.72;5155919;28;20169;-87
2022/11/26 08:06:10;;;;;;;34.05;16.00;;;;;;;6.89;74.51;100553.06;5165010;28;20070;-88
2022/11/26 08:09:01;;;;;;;34.45;16.05;;;;;;;6.92;73.63;100550.28;5155269;28;20134;-88
2022/11/26 08:11:52;;;;;;;28.05;13.77;;;;;;;6.83;74.06;100519.97;5140596;28;20054;-88
2022/11/26 08:14:41;;;;;;;31.80;14.48;;;;;;;6.99;73.67;100534.97;5165175;28;20132;-87
2022/11/26 08:17:32;;;;;;;28.40;14.00;;;;;;;7.02;73.75;100551.47;5150105;28;20132;-87
2022/11/26 08:20:23;;;;;;;23.75;12.82;;;;;;;7.07;73.47;100559.97;5171849;28;20055;-88
2022/11/26 08:23:18;;;;;;;22.67;11.93;;;;;;;6.78;73.92;100542.22;5172090;28;20133;-89
2022/11/26 08:26:10;;;;;;;23.55;11.80;;;;;;;7.03;73.46;100557.59;5160003;28;20778;-88
2022/11/26 08:29:20;;;;;;;19.73;11.50;;;;;;;6.97;73.19;100537.66;5162090;28;20042;-87
2022/11/26 08:32:10;;;;;;;27.80;11.93;;;;;;;7.11;72.93;100560.66;5164278;28;20470;-87
2022/11/26 08:35:00;;;;;;;27.73;11.55;;;;;;;7.21;73.72;100561.00;5163652;28;20057;-87
2022/11/26 08:37:50;;;;;;;25.23;10.90;;;;;;;7.27;74.12;100563.31;5160238;28;20050;-87
2022/11/26 08:40:40;;;;;;;27.92;11.65;;;;;;;7.19;73.61;100542.63;5137142;28;20051;-87
2022/11/26 08:43:32;;;;;;;17.02;10.77;;;;;;;7.29;73.61;100549.09;5154259;28;20077;-89
2022/11/26 08:46:42;;;;;;;21.58;10.88;;;;;;;7.57;73.97;100571.31;5149801;28;20052;-90
2022/11/26 08:49:33;;;;;;;24.55;12.30;;;;;;;7.67;73.48;100572.50;5177608;28;20123;-89
2022/11/26 08:52:24;;;;;;;29.83;12.75;;;;;;;7.65;73.23;100540.06;5181487;28;20042;-91
2022/11/26 08:55:15;;;;;;;30.38;12.00;;;;;;;7.93;73.10;100560.44;5185665;28;20555;-85
2022/11/26 08:58:05;;;;;;;26.15;13.13;;;;;;;8.08;73.68;100558.72;5196530;28;20056;-86
2022/11/26 09:00:55;;;;;;;31.75;13.77;;;;;;;8.41;72.63;100584.97;5189154;22;20117;-73
2022/11/26 09:03:50;;;;;;;27.25;12.23;;;;;;;8.32;72.88;100571.44;5189870;28;20056;-77
2022/11/26 09:06:40;;;;;;;30.05;12.93;;;;;;;8.27;73.14;100578.75;5171374;28;20057;-76
2022/11/26 09:09:31;;;;;;;27.05;14.18;;;;;;;8.31;72.82;100575.00;5200077;28;20060;-77
2022/11/26 09:12:21;;;;;;;30.65;15.18;;;;;;;8.16;73.13;100550.34;5195664;28;20077;-74
2022/11/26 09:15:11;;;;;;;39.22;14.07;;;;;;;8.43;73.85;100567.22;5196324;28;20056;-77
2022/11/26 09:18:02;;;;;;;42.70;14.23;;;;;;;8.55;73.11;100533.94;5196778;28;20419;-76
2022/11/26 09:20:52;;;;;;;36.53;14.30;;;;;;;8.70;72.53;100538.25;5199534;28;20451;-77
2022/11/26 09:23:47;;;;;;;36.10;14.77;;;;;;;8.91;72.94;100556.41;5196983;28;20144;-76
2022/11/26 09:26:37;;;;;;;44.40;15.77;;;;;;;8.87;72.96;100555.75;5204291;28;20674;-77
2022/11/26 09:29:27;;;;;;;39.42;16.23;;;;;;;9.00;72.54;100557.63;5204143;28;20136;-76
2022/11/26 09:32:17;;;;;;;47.30;15.80;;;;;;;8.92;72.71;100566.88;5203022;28;20635;-77
2022/11/26 09:35:21;;;;;;;47.00;17.77;;;;;;;9.09;72.48;100549.97;5183745;28;20058;-78
2022/11/26 09:38:11;;;;;;;42.20;17.88;;;;;;;9.26;71.23;100545.41;5203783;28;20180;-77
2022/11/26 09:41:31;;;;;;;30.98;16.08;;;;;;;9.38;71.97;100574.59;5202606;28;20479;-77
2022/11/26 09:44:46;;;;;;;42.03;16.20;;;;;;;9.52;71.62;100586.09;5202765;28;20419;-73
2022/11/26 09:47:40;;;;;;;41.55;14.85;;;;;;;9.33;71.80;100568.72;5202791;28;20049;-77
2022/11/26 09:50:35;;;;;;;32.92;14.27;;;;;;;9.32;70.97;100564.41;5189808;28;20263;-76
2022/11/26 09:53:30;;;;;;;44.75;15.25;;;;;;;9.41;71.88;100576.22;5184040;28;20580;-72
2022/11/26 09:56:25;;;;;;;37.90;15.23;;;;;;;9.37;71.41;100583.50;5192911;28;20448;-74
2022/11/26 09:59:19;;;;;;;37.83;14.45;;;;;;;9.50;71.09;100582.69;5200336;28;20065;-74
2022/11/26 10:02:11;;;;;;;39.85;13.27;;;;;;;9.52;70.84;100581.66;5203171;28;20064;-73
2022/11/26 10:05:01;;;;;;;34.75;13.35;;;;;;;9.59;70.98;100582.09;5203527;28;20049;-74
2022/11/26 10:08:12;;;;;;;30.02;13.30;;;;;;;9.58;69.62;100581.25;5202246;28;20056;-73
2022/11/26 10:11:36;;;;;;;29.17;13.27;;;;;;;9.55;70.22;100568.22;5202801;28;20060;-74
2022/11/26 10:14:36;;;;;;;30.83;12.93;;;;;;;9.51;69.70;100573.81;5203652;28;20052;-74
2022/11/26 10:17:46;;;;;;;33.25;14.15;;;;;;;9.47;70.43;100556.41;5185364;28;20053;-73
2022/11/26 10:20:53;;;;;;;36.53;14.52;;;;;;;9.71;70.08;100572.53;5190463;28;20213;-74
2022/11/26 10:23:56;;;;;;;31.10;13.02;;;;;;;9.75;68.56;100569.56;5203414;28;20095;-74
2022/11/26 10:26:47;;;;;;;34.03;13.10;;;;;;;9.61;70.35;100578.44;5205499;28;20519;-75
2022/11/26 10:29:41;;;;;;;32.40;11.77;;;;;;;9.68;69.93;100575.38;5187803;28;20072;-75
2022/11/26 10:32:37;;;;;;;32.60;12.27;;;;;;;9.57;70.28;100558.38;5187914;28;20139;-73
2022/11/26 10:35:28;;;;;;;29.45;11.38;;;;;;;9.69;69.21;100583.22;5202754;28;20063;-73
2022/11/26 10:38:18;;;;;;;34.85;11.85;;;;;;;9.44;69.87;100561.91;5202267;28;20119;-73
2022/11/26 10:41:08;;;;;;;27.52;10.27;;;;;;;9.59;69.87;100567.06;5186948;28;20072;-73
2022/11/26 10:44:27;;;;;;;35.67;10.65;;;;;;;9.64;69.32;100582.69;5188104;28;20407;-72
2022/11/26 10:47:28;;;;;;;28.25;10.68;;;;;;;9.66;69.41;100578.13;5200652;28;20122;-74
2022/11/26 10:50:22;;;;;;;32.85;10.60;;;;;;;9.82;69.86;100583.28;5189570;28;20187;-74
2022/11/26 10:53:48;;;;;;;32.58;9.80;;;;;;;9.89;69.00;100571.31;5190205;28;20050;-74
2022/11/26 10:56:42;;;;;;;29.92;10.05;;;;;;;9.93;69.31;100570.16;5202595;28;20143;-74
2022/11/26 10:59:48;;;;;;;31.17;9.98;;;;;;;10.16;68.64;100562.50;5189605;28;20061;-74
2022/11/26 11:02:40;;;;;;;20.73;9.20;;;;;;;10.28;68.59;100567.84;5202328;28;20054;-73
2022/11/26 11:05:30;;;;;;;23.15;9.98;;;;;;;10.33;68.71;100528.63;5187465;28;20084;-75
2022/11/26 11:08:31;;;;;;;29.42;11.02;;;;;;;10.41;67.60;100551.97;5202253;28;20049;-74
2022/11/26 11:11:30;;;;;;;23.55;10.43;;;;;;;10.65;67.21;100560.03;5201621;28;20056;-75
2022/11/26 11:14:27;;;;;;;32.88;10.18;;;;;;;10.64;66.21;100550.38;5167928;28;20046;-73
2022/11/26 11:17:29;;;;;;;26.42;9.68;;;;;;;10.75;67.00;100547.81;5197180;28;20115;-74
2022/11/26 11:20:49;;;;;;;33.28;10.00;;;;;;;10.66;66.78;100551.16;5174835;28;20414;-75
2022/11/26 11:23:39;;;;;;;30.75;10.27;;;;;;;10.80;67.66;100544.88;5202634;28;20099;-75
2022/11/26 11:26:52;;;;;;;28.80;10.65;;;;;;;10.93;68.22;100550.16;5200163;28;20129;-75
2022/11/26 11:29:42;;;;;;;32.50;9.80;;;;;;;10.75;68.13;100537.22;5200736;28;20161;-75
2022/11/26 11:32:36;;;;;;;22.77;9.60;;;;;;;10.54;67.26;100550.16;5202414;28;20132;-74
2022/11/26 11:35:30;;;;;;;21.05;8.77;;;;;;;10.43;67.31;100554.50;5202438;28;20142;-74
2022/11/26 11:38:23;;;;;;;29.52;9.05;;;;;;;10.67;66.98;100539.56;5189082;28;20049;-74
2022/11/26 11:41:25;;;;;;;31.60;8.98;;;;;;;10.80;67.03;100553.69;5195726;28;20484;-74
2022/11/26 11:44:19;;;;;;;26.70;8.23;;;;;;;10.88;65.96;100545.16;5189965;28;20126;-74
2022/11/26 11:47:27;;;;;;;33.83;9.10;;;;;;;10.92;66.14;100549.28;5206160;28;20049;-75
2022/11/26 11:50:20;;;;;;;29.27;8.57;;;;;;;10.96;66.36;100544.63;5205645;28;20049;-74
2022/11/26 11:53:46;;;;;;;29.17;9.30;;;;;;;11.02;67.22;100552.16;5198554;28;20506;-75
2022/11/26 11:56:42;;;;;;;34.60;8.82;;;;;;;11.02;65.73;100538.88;5190776;28;20139;-73
2022/11/26 12:00:08;;;;;;;25.55;8.77;;;;;;;11.12;65.84;100545.22;5186786;28;20064;-75
2022/11/26 12:03:29;;;;;;;25.48;8.07;;;;;;;11.18;64.99;100546.59;5205682;28;20059;-76
2022/11/26 12:06:47;;;;;;;25.40;9.23;;;;;;;11.18;66.67;100543.94;5191879;28;20053;-75
2022/11/26 12:10:02;;;;;;;21.40;7.40;;;;;;;11.04;64.89;100529.00;5190435;28;20048;-75
2022/11/26 12:12:56;;;;;;;22.17;8.00;;;;;;;11.20;64.96;100534.09;5189630;28;20098;-76
2022/11/26 12:15:57;;;;;;;27.77;11.60;;;;;;;11.06;64.34;100508.53;5196208;28;20049;-75
2022/11/26 12:18:53;;;;;;;20.10;8.18;;;;;;;11.26;64.42;100523.88;5205496;28;20139;-76
2022/11/26 12:22:00;;;;;;;32.20;8.80;;;;;;;11.13;64.62;100524.88;5205457;28;20621;-75
2022/11/26 12:25:00;;;;;;;22.73;8.35;;;;;;;11.41;63.16;100529.88;5205724;28;20076;-76
2022/11/26 12:27:59;;;;;;;25.33;7.72;;;;;;;11.29;62.97;100526.31;5197478;28;20056;-75
2022/11/26 12:31:14;;;;;;;25.52;8.20;;;;;;;11.35;63.29;100517.03;5190837;28;20665;-74
2022/11/26 12:34:33;;;;;;;20.55;7.75;;;;;;;11.14;64.91;100521.25;5178142;28;20048;-76
2022/11/26 12:37:29;;;;;;;24.10;7.97;;;;;;;11.35;63.89;100524.16;5204633;28;20080;-75
2022/11/26 12:40:34;;;;;;;29.48;8.15;;;;;;;11.32;63.39;100529.69;5205478;28;20096;-75
2022/11/26 12:43:46;;;;;;;25.60;8.52;;;;;;;11.34;63.76;100527.78;5204410;28;20132;-74
2022/11/26 12:46:43;;;;;;;15.32;6.45;;;;;;;10.98;63.15;100505.56;5195695;28;20064;-75
2022/11/26 12:49:49;;;;;;;17.55;8.40;;;;;;;11.26;63.31;100513.25;5204940;28;20087;-75
2022/11/26 12:53:02;;;;;;;18.35;6.43;;;;;;;11.27;63.36;100514.09;5204302;28;20523;-76
2022/11/26 12:56:14;;;;;;;16.47;6.93;;;;;;;11.15;63.00;100493.72;5204814;28;20100;-75
2022/11/26 12:59:26;;;;;;;24.63;6.65;;;;;;;11.44;63.08;100508.41;5188496;28;20060;-76
2022/11/26 13:02:29;;;;;;;20.98;6.70;;;;;;;11.53;64.58;100506.88;5194890;28;20056;-75
2022/11/26 13:05:30;;;;;;;23.08;6.35;;;;;;;11.64;64.24;100509.59;5204682;28;20111;-76
2022/11/26 13:08:43;;;;;;;18.52;6.80;;;;;;;11.58;63.34;100490.59;5203876;28;20056;-75
2022/11/26 13:11:52;;;;;;;22.38;6.45;;;;;;;11.61;63.21;100504.50;5206034;28;20057;-75
2022/11/26 13:15:09;;;;;;;18.50;6.38;;;;;;;11.70;62.48;100498.50;5197452;28;20146;-74
2022/11/26 13:18:01;;;;;;;18.58;6.72;;;;;;;11.09;63.87;100497.66;5176479;28;20045;-74
2022/11/26 13:21:13;;;;;;;24.52;6.32;;;;;;;11.02;62.89;100502.56;5204754;28;20057;-76
2022/11/26 13:24:27;;;;;;;19.20;6.32;;;;;;;11.14;64.02;100463.69;5204456;28;20044;-74
2022/11/26 13:27:35;;;;;;;;;;;;;;;11.56;64.04;100505.81;5176225;28;20139;-73
2022/11/26 13:31:15;;;;;;;20.63;6.97;;;;;;;11.48;63.71;100506.34;5183935;28;20000;-74